Time,TemperatureF,DewpointF,PressureIn,WindDirection,WindDirectionDegrees,WindSpeedMPH,WindSpeedGustMPH,Humidity,HourlyPrecipIn,Conditions,Clouds,dailyrainin,SoftwareType,DateUTC
2013-01-02 00:01:00,26.6,18.1,29.38,North,1,2.2,3.6,70,0.00,,---,0.00,VWS V14.00,2013-01-02 06:01:00,
2013-01-02 00:04:00,26.4,18.0,29.35,NNW,338,0.0,3.6,70,0.00,,---,0.00,VWS V14.00,2013-01-02 06:04:00,
2013-01-02 00:07:00,26.2,17.8,29.35,North,353,0.0,0.0,70,0.00,,---,0.00,VWS V14.00,2013-01-02 06:07:00,
2013-01-02 00:10:00,26.2,17.8,29.35,NNW,341,2.7,2.7,70,0.00,,---,0.00,VWS V14.00,2013-01-02 06:10:00,
2013-01-02 00:16:00,25.9,17.1,29.35,NNW,345,4.0,4.0,69,0.00,,---,0.00,VWS V14.00,2013-01-02 06:16:00,
2013-01-02 00:19:00,25.9,17.1,29.35,NNW,345,0.0,4.0,69,0.00,,---,0.00,VWS V14.00,2013-01-02 06:19:00,
2013-01-02 00:22:00,25.9,17.1,29.35,North,0,0.0,3.1,69,0.00,,---,0.00,VWS V14.00,2013-01-02 06:22:00,
2013-01-02 00:25:00,25.9,17.1,29.35,North,349,0.0,3.1,69,0.00,,---,0.00,VWS V14.00,2013-01-02 06:25:00,
2013-01-02 00:28:00,25.5,16.8,29.35,North,349,0.0,3.1,69,0.00,,---,0.00,VWS V14.00,2013-01-02 06:28:00,
2013-01-02 00:31:00,25.7,16.9,29.35,NNW,345,2.2,3.1,69,0.00,,---,0.00,VWS V14.00,2013-01-02 06:31:00,
2013-01-02 00:34:00,25.7,16.9,29.35,North,350,0.0,3.1,69,0.00,,---,0.00,VWS V14.00,2013-01-02 06:34:00,
2013-01-02 00:40:00,25.9,17.1,29.35,North,0,0.0,0.0,69,0.00,,---,0.00,VWS V14.00,2013-01-02 06:40:00,
2013-01-02 00:43:00,25.9,17.1,29.35,North,357,0.0,0.0,69,0.00,,---,0.00,VWS V14.00,2013-01-02 06:43:00,
2013-01-02 00:49:00,25.9,17.4,29.35,North,353,0.0,0.0,70,0.00,,---,0.00,VWS V14.00,2013-01-02 06:49:00,
2013-01-02 00:55:00,25.9,17.4,29.35,NNW,346,0.0,0.0,70,0.00,,---,0.00,VWS V14.00,2013-01-02 06:55:00,
2013-01-02 00:58:00,25.9,17.4,29.35,NNW,346,2.7,2.7,70,0.00,,---,0.00,VWS V14.00,2013-01-02 06:58:00,
2013-01-02 01:04:00,25.9,17.4,29.35,NNW,343,0.0,2.7,70,0.00,,---,0.00,VWS V14.00,2013-01-02 07:04:00,
2013-01-02 01:07:00,25.9,17.4,29.35,NNW,341,2.2,2.2,70,0.00,,---,0.00,VWS V14.00,2013-01-02 07:07:00,
2013-01-02 01:13:00,25.0,16.6,29.35,North,350,0.0,3.6,70,0.00,,---,0.00,VWS V14.00,2013-01-02 07:13:00,
2013-01-02 01:19:00,24.6,16.2,29.35,North,353,0.0,3.6,70,0.00,,---,0.00,VWS V14.00,2013-01-02 07:19:00,
2013-01-02 01:25:00,25.0,17.2,29.35,NNW,343,0.0,3.1,72,0.00,,---,0.00,VWS V14.00,2013-01-02 07:25:00,
2013-01-02 01:28:00,24.6,16.9,29.35,NNW,343,0.0,3.1,72,0.00,,---,0.00,VWS V14.00,2013-01-02 07:28:00,
2013-01-02 01:34:00,24.6,16.9,29.35,North,353,0.0,4.0,72,0.00,,---,0.00,VWS V14.00,2013-01-02 07:34:00,
2013-01-02 01:40:00,24.6,16.9,29.35,North,353,0.0,0.0,72,0.00,,---,0.00,VWS V14.00,2013-01-02 07:40:00,
2013-01-02 01:46:00,24.6,16.9,29.35,North,0,0.0,0.0,72,0.00,,---,0.00,VWS V14.00,2013-01-02 07:46:00,
2013-01-02 01:49:00,24.6,16.9,29.35,North,0,0.0,0.0,72,0.00,,---,0.00,VWS V14.00,2013-01-02 07:49:00,
2013-01-02 01:56:00,24.6,16.9,29.35,North,0,0.0,0.0,72,0.00,,---,0.00,VWS V14.00,2013-01-02 07:56:00,
2013-01-02 02:02:00,24.6,16.9,29.35,NNW,338,0.0,0.0,72,0.00,,---,0.00,VWS V14.00,2013-01-02 08:02:00,
2013-01-02 02:04:00,24.6,16.9,29.38,NW,316,0.0,0.0,72,0.00,,---,0.00,VWS V14.00,2013-01-02 08:04:00,
2013-01-02 02:05:00,24.6,16.9,29.38,NW,316,0.0,0.0,72,0.00,,---,0.00,VWS V14.00,2013-01-02 08:05:00,
2013-01-02 02:08:00,24.6,16.9,29.38,North,357,0.0,0.0,72,0.00,,---,0.00,VWS V14.00,2013-01-02 08:08:00,
2013-01-02 02:14:00,24.6,16.9,29.38,NNW,338,0.0,3.1,72,0.00,,---,0.00,VWS V14.00,2013-01-02 08:14:00,
2013-01-02 02:19:00,23.7,15.7,29.38,NNW,348,0.0,3.1,71,0.00,,---,0.00,VWS V14.00,2013-01-02 08:19:00,
2013-01-02 02:26:00,23.7,15.7,29.38,NNW,341,0.0,0.0,71,0.00,,---,0.00,VWS V14.00,2013-01-02 08:26:00,
2013-01-02 02:29:00,23.9,16.2,29.38,NNW,340,0.0,0.0,72,0.00,,---,0.00,VWS V14.00,2013-01-02 08:29:00,
2013-01-02 02:32:00,23.9,16.2,29.38,NNW,340,0.0,0.0,72,0.00,,---,0.00,VWS V14.00,2013-01-02 08:32:00,
2013-01-02 02:35:00,23.7,16.0,29.38,NW,325,0.0,0.0,72,0.00,,---,0.00,VWS V14.00,2013-01-02 08:35:00,
2013-01-02 02:41:00,23.7,16.0,29.38,NNW,346,0.0,0.0,72,0.00,,---,0.00,VWS V14.00,2013-01-02 08:41:00,
2013-01-02 02:47:00,23.7,16.0,29.38,North,353,0.0,0.0,72,0.00,,---,0.00,VWS V14.00,2013-01-02 08:47:00,
2013-01-02 02:49:00,23.7,16.0,29.38,North,353,0.0,0.0,72,0.00,,---,0.00,VWS V14.00,2013-01-02 08:49:00,
2013-01-02 02:56:00,23.9,16.2,29.38,NNW,336,0.0,0.0,72,0.00,,---,0.00,VWS V14.00,2013-01-02 08:56:00,
2013-01-02 03:02:00,23.9,16.2,29.38,NNW,336,0.0,0.0,72,0.00,,---,0.00,VWS V14.00,2013-01-02 09:02:00,
2013-01-02 03:04:00,23.9,16.2,29.38,NNW,335,0.0,0.0,72,0.00,,---,0.00,VWS V14.00,2013-01-02 09:04:00,
2013-01-02 03:11:00,23.2,15.2,29.38,NNW,335,0.0,0.0,71,0.00,,---,0.00,VWS V14.00,2013-01-02 09:11:00,
2013-01-02 03:17:00,23.2,15.2,29.38,North,349,0.0,0.0,71,0.00,,---,0.00,VWS V14.00,2013-01-02 09:17:00,
2013-01-02 03:19:00,22.3,14.0,29.38,North,349,0.0,0.0,70,0.00,,---,0.00,VWS V14.00,2013-01-02 09:19:00,
2013-01-02 03:26:00,22.1,14.1,29.38,North,0,0.0,0.0,71,0.00,,---,0.00,VWS V14.00,2013-01-02 09:26:00,
2013-01-02 03:29:00,22.1,14.1,29.38,North,353,0.0,0.0,71,0.00,,---,0.00,VWS V14.00,2013-01-02 09:29:00,
2013-01-02 03:32:00,22.1,14.1,29.38,North,0,0.0,0.0,71,0.00,,---,0.00,VWS V14.00,2013-01-02 09:32:00,
2013-01-02 03:35:00,22.8,15.1,29.38,North,0,0.0,0.0,72,0.00,,---,0.00,VWS V14.00,2013-01-02 09:35:00,
2013-01-02 03:41:00,22.4,14.8,29.35,North,0,0.0,0.0,72,0.00,,---,0.00,VWS V14.00,2013-01-02 09:41:00,
2013-01-02 03:44:00,22.4,14.8,29.35,North,0,0.0,0.0,72,0.00,,---,0.00,VWS V14.00,2013-01-02 09:44:00,
2013-01-02 03:47:00,22.4,14.8,29.35,North,0,0.0,0.0,72,0.00,,---,0.00,VWS V14.00,2013-01-02 09:47:00,
2013-01-02 03:49:00,22.4,14.8,29.35,North,0,0.0,0.0,72,0.00,,---,0.00,VWS V14.00,2013-01-02 09:49:00,
2013-01-02 03:53:00,22.6,15.0,29.35,North,0,0.0,0.0,72,0.00,,---,0.00,VWS V14.00,2013-01-02 09:53:00,
2013-01-02 03:56:00,22.6,15.0,29.35,North,0,0.0,0.0,72,0.00,,---,0.00,VWS V14.00,2013-01-02 09:56:00,
2013-01-02 03:59:00,22.8,15.5,29.35,North,0,0.0,0.0,73,0.00,,---,0.00,VWS V14.00,2013-01-02 09:59:00,
2013-01-02 04:02:00,22.8,15.5,29.35,North,0,0.0,0.0,73,0.00,,---,0.00,VWS V14.00,2013-01-02 10:02:00,
2013-01-02 04:04:00,22.8,15.5,29.35,North,353,0.0,0.0,73,0.00,,---,0.00,VWS V14.00,2013-01-02 10:04:00,
2013-01-02 04:08:00,23.0,15.3,29.38,North,357,0.0,0.0,72,0.00,,---,0.00,VWS V14.00,2013-01-02 10:08:00,
2013-01-02 04:11:00,23.0,15.3,29.38,North,0,0.0,0.0,72,0.00,,---,0.00,VWS V14.00,2013-01-02 10:11:00,
2013-01-02 04:14:00,23.2,15.8,29.38,North,0,0.0,0.0,73,0.00,,---,0.00,VWS V14.00,2013-01-02 10:14:00,
2013-01-02 04:17:00,23.0,15.6,29.38,North,0,0.0,0.0,73,0.00,,---,0.00,VWS V14.00,2013-01-02 10:17:00,
2013-01-02 04:20:00,23.0,15.6,29.38,North,0,0.0,0.0,73,0.00,,---,0.00,VWS V14.00,2013-01-02 10:20:00,
2013-01-02 04:23:00,23.0,15.6,29.38,North,0,0.0,0.0,73,0.00,,---,0.00,VWS V14.00,2013-01-02 10:23:00,
2013-01-02 04:26:00,22.8,15.1,29.38,North,0,0.0,0.0,72,0.00,,---,0.00,VWS V14.00,2013-01-02 10:26:00,
2013-01-02 04:32:00,22.8,15.1,29.38,North,0,0.0,0.0,72,0.00,,---,0.00,VWS V14.00,2013-01-02 10:32:00,
2013-01-02 04:34:00,22.8,15.1,29.38,North,0,0.0,0.0,72,0.00,,---,0.00,VWS V14.00,2013-01-02 10:34:00,
2013-01-02 04:35:00,22.4,14.1,29.38,North,0,0.0,0.0,70,0.00,,---,0.00,VWS V14.00,2013-01-02 10:35:00,
2013-01-02 04:41:00,22.8,15.1,29.38,North,0,0.0,0.0,72,0.00,,---,0.00,VWS V14.00,2013-01-02 10:41:00,
2013-01-02 04:44:00,22.8,15.1,29.38,North,0,0.0,0.0,72,0.00,,---,0.00,VWS V14.00,2013-01-02 10:44:00,
2013-01-02 04:49:00,22.8,15.1,29.38,North,0,0.0,0.0,72,0.00,,---,0.00,VWS V14.00,2013-01-02 10:49:00,
2013-01-02 04:50:00,22.3,14.3,29.38,North,0,0.0,0.0,71,0.00,,---,0.00,VWS V14.00,2013-01-02 10:50:00,
2013-01-02 04:56:00,22.3,14.3,29.38,North,0,0.0,0.0,71,0.00,,---,0.00,VWS V14.00,2013-01-02 10:56:00,
2013-01-02 04:59:00,21.9,14.0,29.38,North,0,0.0,0.0,71,0.00,,---,0.00,VWS V14.00,2013-01-02 10:59:00,
2013-01-02 05:04:00,21.7,14.1,29.38,North,0,0.0,0.0,72,0.00,,---,0.00,VWS V14.00,2013-01-02 11:04:00,
2013-01-02 05:05:00,21.7,14.1,29.38,North,0,0.0,0.0,72,0.00,,---,0.00,VWS V14.00,2013-01-02 11:05:00,
2013-01-02 05:11:00,22.1,14.8,29.38,North,0,0.0,0.0,73,0.00,,---,0.00,VWS V14.00,2013-01-02 11:11:00,
2013-01-02 05:14:00,22.1,14.8,29.38,North,0,0.0,0.0,73,0.00,,---,0.00,VWS V14.00,2013-01-02 11:14:00,
2013-01-02 05:19:00,22.4,15.4,29.35,North,0,0.0,0.0,74,0.00,,---,0.00,VWS V14.00,2013-01-02 11:19:00,
2013-01-02 05:20:00,22.4,15.4,29.35,North,0,0.0,0.0,74,0.00,,---,0.00,VWS V14.00,2013-01-02 11:20:00,
2013-01-02 05:26:00,22.4,15.7,29.35,North,0,0.0,0.0,75,0.00,,---,0.00,VWS V14.00,2013-01-02 11:26:00,
2013-01-02 05:32:00,22.4,15.7,29.35,North,0,0.0,0.0,75,0.00,,---,0.00,VWS V14.00,2013-01-02 11:32:00,
2013-01-02 05:35:00,22.4,15.7,29.38,North,0,0.0,0.0,75,0.00,,---,0.00,VWS V14.00,2013-01-02 11:35:00,
2013-01-02 05:41:00,22.3,15.6,29.38,North,0,0.0,0.0,75,0.00,,---,0.00,VWS V14.00,2013-01-02 11:41:00,
2013-01-02 05:44:00,21.9,14.9,29.38,North,0,0.0,0.0,74,0.00,,---,0.00,VWS V14.00,2013-01-02 11:44:00,
2013-01-02 05:47:00,21.9,14.9,29.38,North,0,0.0,0.0,74,0.00,,---,0.00,VWS V14.00,2013-01-02 11:47:00,
2013-01-02 05:50:00,21.7,14.4,29.38,North,0,0.0,0.0,73,0.00,,---,0.00,VWS V14.00,2013-01-02 11:50:00,
2013-01-02 05:56:00,21.7,14.4,29.38,North,0,0.0,0.0,73,0.00,,---,0.00,VWS V14.00,2013-01-02 11:56:00,
2013-01-02 05:59:00,21.7,14.4,29.38,North,0,0.0,0.0,73,0.00,,---,0.00,VWS V14.00,2013-01-02 11:59:00,
2013-01-02 06:02:00,21.7,14.4,29.38,North,0,0.0,0.0,73,0.00,,---,0.00,VWS V14.00,2013-01-02 12:02:00,
2013-01-02 06:05:00,21.7,14.4,29.38,North,0,0.0,0.0,73,0.00,,---,0.00,VWS V14.00,2013-01-02 12:05:00,
2013-01-02 06:11:00,21.9,14.9,29.38,North,0,0.0,0.0,74,0.00,,---,0.00,VWS V14.00,2013-01-02 12:11:00,
2013-01-02 06:14:00,21.9,14.9,29.38,North,0,0.0,0.0,74,0.00,,---,0.00,VWS V14.00,2013-01-02 12:14:00,
2013-01-02 06:19:00,21.5,14.2,29.38,North,0,0.0,0.0,73,0.00,,---,0.00,VWS V14.00,2013-01-02 12:19:00,
2013-01-02 06:27:00,21.5,14.2,29.38,North,0,0.0,0.0,73,0.00,,---,0.00,VWS V14.00,2013-01-02 12:27:00,
2013-01-02 06:30:00,21.5,14.2,29.38,North,0,0.0,0.0,73,0.00,,---,0.00,VWS V14.00,2013-01-02 12:30:00,
2013-01-02 06:33:00,22.4,15.7,29.38,North,0,0.0,0.0,75,0.00,,---,0.00,VWS V14.00,2013-01-02 12:33:00,
2013-01-02 06:36:00,22.4,15.7,29.35,North,0,0.0,0.0,75,0.00,,---,0.00,VWS V14.00,2013-01-02 12:36:00,
2013-01-02 06:42:00,23.0,16.6,29.35,North,0,0.0,0.0,76,0.00,,---,0.00,VWS V14.00,2013-01-02 12:42:00,
2013-01-02 06:45:00,23.2,16.7,29.35,North,357,0.0,0.0,76,0.00,,---,0.00,VWS V14.00,2013-01-02 12:45:00,
2013-01-02 06:48:00,23.2,16.7,29.35,North,357,0.0,0.0,76,0.00,,---,0.00,VWS V14.00,2013-01-02 12:48:00,
2013-01-02 06:49:00,23.3,17.2,29.38,North,349,0.0,0.0,77,0.00,,---,0.00,VWS V14.00,2013-01-02 12:49:00,
2013-01-02 06:51:00,23.3,17.2,29.38,North,349,0.0,0.0,77,0.00,,---,0.00,VWS V14.00,2013-01-02 12:51:00,
2013-01-02 06:57:00,23.3,17.2,29.38,NNW,346,0.0,0.0,77,0.00,,---,0.00,VWS V14.00,2013-01-02 12:57:00,
2013-01-02 07:00:00,23.5,17.4,29.38,North,349,0.0,0.0,77,0.00,,---,0.00,VWS V14.00,2013-01-02 13:00:00,
2013-01-02 07:03:00,23.5,17.4,29.38,North,349,0.0,0.0,77,0.00,,---,0.00,VWS V14.00,2013-01-02 13:03:00,
2013-01-02 07:04:00,23.5,17.4,29.38,North,353,0.0,0.0,77,0.00,,---,0.00,VWS V14.00,2013-01-02 13:04:00,
2013-01-02 07:06:00,23.7,17.6,29.38,North,353,0.0,0.0,77,0.00,,---,0.00,VWS V14.00,2013-01-02 13:06:00,
2013-01-02 07:09:00,23.9,17.7,29.38,North,353,0.0,0.0,77,0.00,,---,0.00,VWS V14.00,2013-01-02 13:09:00,
2013-01-02 07:12:00,23.9,17.7,29.38,North,353,0.0,0.0,77,0.00,,---,0.00,VWS V14.00,2013-01-02 13:12:00,
2013-01-02 07:15:00,23.3,16.9,29.38,North,353,0.0,0.0,76,0.00,,---,0.00,VWS V14.00,2013-01-02 13:15:00,
2013-01-02 07:18:00,23.3,16.9,29.38,North,353,0.0,0.0,76,0.00,,---,0.00,VWS V14.00,2013-01-02 13:18:00,
2013-01-02 07:19:00,23.3,16.9,29.38,NW,322,0.0,0.0,76,0.00,,---,0.00,VWS V14.00,2013-01-02 13:19:00,
2013-01-02 07:27:00,22.6,16.2,29.38,West,277,0.0,0.0,76,0.00,,---,0.00,VWS V14.00,2013-01-02 13:27:00,
2013-01-02 07:30:00,22.6,16.2,29.38,WSW,253,0.0,0.0,76,0.00,,---,0.00,VWS V14.00,2013-01-02 13:30:00,
2013-01-02 07:33:00,22.8,16.4,29.38,West,266,0.0,0.0,76,0.00,,---,0.00,VWS V14.00,2013-01-02 13:33:00,
2013-01-02 07:34:00,22.8,16.4,29.38,West,266,0.0,0.0,76,0.00,,---,0.00,VWS V14.00,2013-01-02 13:34:00,
2013-01-02 07:39:00,22.8,16.4,29.38,SSE,153,0.0,0.0,76,0.00,,---,0.00,VWS V14.00,2013-01-02 13:39:00,
2013-01-02 07:42:00,23.3,17.2,29.38,SSE,153,0.0,0.0,77,0.00,,---,0.00,VWS V14.00,2013-01-02 13:42:00,
2013-01-02 07:48:00,23.3,17.2,29.38,SSE,153,0.0,0.0,77,0.00,,---,0.00,VWS V14.00,2013-01-02 13:48:00,
2013-01-02 07:51:00,23.3,17.2,29.38,ESE,113,0.0,0.0,77,0.00,,---,0.00,VWS V14.00,2013-01-02 13:51:00,
2013-01-02 07:54:00,23.5,17.4,29.38,ESE,113,0.0,0.0,77,0.00,,---,0.00,VWS V14.00,2013-01-02 13:54:00,
2013-01-02 08:00:00,23.7,17.6,29.38,ESE,113,0.0,0.0,77,0.00,,---,0.00,VWS V14.00,2013-01-02 14:00:00,
2013-01-02 08:03:00,23.7,17.6,29.38,ESE,113,0.0,0.0,77,0.00,,---,0.00,VWS V14.00,2013-01-02 14:03:00,
2013-01-02 08:06:00,23.9,17.7,29.38,ESE,113,0.0,0.0,77,0.00,,---,0.00,VWS V14.00,2013-01-02 14:06:00,
2013-01-02 08:12:00,23.9,17.7,29.38,SSW,209,0.0,0.0,77,0.00,,---,0.00,VWS V14.00,2013-01-02 14:12:00,
2013-01-02 08:15:00,24.1,17.9,29.38,WSW,243,0.0,0.0,77,0.00,,---,0.00,VWS V14.00,2013-01-02 14:15:00,
2013-01-02 08:18:00,24.1,17.9,29.38,WSW,245,0.0,0.0,77,0.00,,---,0.00,VWS V14.00,2013-01-02 14:18:00,
2013-01-02 08:24:00,24.2,18.1,29.38,WSW,245,0.0,0.0,77,0.00,,---,0.00,VWS V14.00,2013-01-02 14:24:00,
2013-01-02 08:30:00,24.2,17.8,29.38,WSW,245,0.0,0.0,76,0.00,,---,0.00,VWS V14.00,2013-01-02 14:30:00,
2013-01-02 08:36:00,23.9,17.1,29.38,NNW,335,0.0,0.0,75,0.00,,---,0.00,VWS V14.00,2013-01-02 14:36:00,
2013-01-02 08:39:00,23.9,17.1,29.38,North,5,0.0,0.0,75,0.00,,---,0.00,VWS V14.00,2013-01-02 14:39:00,
2013-01-02 08:42:00,23.9,17.1,29.38,North,5,0.0,0.0,75,0.00,,---,0.00,VWS V14.00,2013-01-02 14:42:00,
2013-01-02 08:45:00,24.1,17.3,29.38,North,5,0.0,0.0,75,0.00,,---,0.00,VWS V14.00,2013-01-02 14:45:00,
2013-01-02 08:48:00,24.1,17.3,29.38,North,5,0.0,0.0,75,0.00,,---,0.00,VWS V14.00,2013-01-02 14:48:00,
2013-01-02 08:54:00,24.1,17.3,29.38,North,5,0.0,0.0,75,0.00,,---,0.00,VWS V14.00,2013-01-02 14:54:00,
2013-01-02 08:57:00,24.1,17.3,29.38,North,5,0.0,0.0,75,0.00,,---,0.00,VWS V14.00,2013-01-02 14:57:00,
2013-01-02 09:00:00,25.1,18.6,29.38,North,5,0.0,0.0,76,0.00,,---,0.00,VWS V14.00,2013-01-02 15:00:00,
2013-01-02 09:03:00,25.1,18.6,29.38,North,5,0.0,0.0,76,0.00,,---,0.00,VWS V14.00,2013-01-02 15:03:00,
2013-01-02 09:06:00,25.1,18.6,29.38,North,5,0.0,0.0,76,0.00,,---,0.00,VWS V14.00,2013-01-02 15:06:00,
2013-01-02 09:09:00,25.1,18.6,29.38,North,5,0.0,0.0,76,0.00,,---,0.00,VWS V14.00,2013-01-02 15:09:00,
2013-01-02 09:15:00,26.4,19.9,29.38,North,5,0.0,0.0,76,0.00,,---,0.00,VWS V14.00,2013-01-02 15:15:00,
2013-01-02 09:18:00,26.6,20.0,29.38,North,5,0.0,0.0,76,0.00,,---,0.00,VWS V14.00,2013-01-02 15:18:00,
2013-01-02 09:24:00,26.8,19.9,29.38,North,5,0.0,0.0,75,0.00,,---,0.00,VWS V14.00,2013-01-02 15:24:00,
2013-01-02 09:27:00,26.8,19.9,29.38,North,5,0.0,0.0,75,0.00,,---,0.00,VWS V14.00,2013-01-02 15:27:00,
2013-01-02 09:30:00,26.8,19.9,29.38,North,5,0.0,0.0,75,0.00,,---,0.00,VWS V14.00,2013-01-02 15:30:00,
2013-01-02 09:33:00,27.7,20.8,29.38,North,6,0.0,0.0,75,0.00,,---,0.00,VWS V14.00,2013-01-02 15:33:00,
2013-01-02 09:36:00,27.7,20.8,29.38,SSE,153,0.0,0.0,75,0.00,,---,0.00,VWS V14.00,2013-01-02 15:36:00,
2013-01-02 09:42:00,26.9,19.5,29.38,SSE,153,0.0,0.0,73,0.00,,---,0.00,VWS V14.00,2013-01-02 15:42:00,
2013-01-02 09:48:00,26.6,18.8,29.38,SSE,153,0.0,0.0,72,0.00,,---,0.00,VWS V14.00,2013-01-02 15:48:00,
2013-01-02 09:49:00,26.6,18.8,29.38,SSE,153,0.0,0.0,72,0.00,,---,0.00,VWS V14.00,2013-01-02 15:49:00,
2013-01-02 09:51:00,26.6,18.8,29.38,SSE,153,0.0,0.0,72,0.00,,---,0.00,VWS V14.00,2013-01-02 15:51:00,
2013-01-02 09:54:00,26.6,18.8,29.38,SW,219,0.0,0.0,72,0.00,,---,0.00,VWS V14.00,2013-01-02 15:54:00,
2013-01-02 09:57:00,26.6,18.8,29.38,SW,219,0.0,0.0,72,0.00,,---,0.00,VWS V14.00,2013-01-02 15:57:00,
2013-01-02 10:03:00,27.1,19.3,29.38,SW,219,0.0,0.0,72,0.00,,---,0.00,VWS V14.00,2013-01-02 16:03:00,
2013-01-02 10:04:00,27.1,19.3,29.38,SW,219,0.0,0.0,72,0.00,,---,0.00,VWS V14.00,2013-01-02 16:04:00,
2013-01-02 10:09:00,27.1,19.3,29.38,SSW,201,0.0,0.0,72,0.00,,---,0.00,VWS V14.00,2013-01-02 16:09:00,
2013-01-02 10:12:00,27.1,19.3,29.38,SSW,210,0.0,0.0,72,0.00,,---,0.00,VWS V14.00,2013-01-02 16:12:00,
2013-01-02 10:18:00,27.5,19.6,29.38,SSW,210,0.0,0.0,72,0.00,,---,0.00,VWS V14.00,2013-01-02 16:18:00,
2013-01-02 10:19:00,27.5,19.6,29.38,South,184,0.0,2.2,72,0.00,,---,0.00,VWS V14.00,2013-01-02 16:19:00,
2013-01-02 10:21:00,27.5,19.6,29.38,South,184,0.0,0.0,72,0.00,,---,0.00,VWS V14.00,2013-01-02 16:21:00,
2013-01-02 10:24:00,27.5,19.6,29.38,SSE,162,0.0,0.0,72,0.00,,---,0.00,VWS V14.00,2013-01-02 16:24:00,
2013-01-02 10:27:00,27.5,19.6,29.38,SSE,162,0.0,0.0,72,0.00,,---,0.00,VWS V14.00,2013-01-02 16:27:00,
2013-01-02 10:30:00,27.5,19.6,29.38,South,184,0.0,0.0,72,0.00,,---,0.00,VWS V14.00,2013-01-02 16:30:00,
2013-01-02 10:33:00,29.5,21.6,29.38,South,190,3.1,3.1,72,0.00,,---,0.00,VWS V14.00,2013-01-02 16:33:00,
2013-01-02 10:34:00,29.5,21.6,29.38,South,190,2.2,3.1,72,0.00,,---,0.00,VWS V14.00,2013-01-02 16:34:00,
2013-01-02 10:39:00,29.5,21.6,29.38,South,177,4.9,4.9,72,0.00,,---,0.00,VWS V14.00,2013-01-02 16:39:00,
2013-01-02 10:42:00,30.5,22.6,29.38,SSE,162,4.0,4.9,72,0.00,,---,0.00,VWS V14.00,2013-01-02 16:42:00,
2013-01-02 10:48:00,30.9,22.6,29.38,SSE,166,3.1,4.9,71,0.00,,---,0.00,VWS V14.00,2013-01-02 16:48:00,
2013-01-02 10:51:00,31.1,22.5,29.38,SSE,166,3.1,3.1,70,0.00,,---,0.00,VWS V14.00,2013-01-02 16:51:00,
2013-01-02 10:57:00,31.4,22.5,29.38,SSE,155,2.7,3.6,69,0.00,,---,0.00,VWS V14.00,2013-01-02 16:57:00,
2013-01-02 11:04:00,31.6,22.6,29.38,SSE,164,2.2,4.0,69,0.00,,---,0.00,VWS V14.00,2013-01-02 17:04:00,
2013-01-02 11:07:00,32.0,22.3,29.38,South,189,3.1,4.9,67,0.00,,---,0.00,VWS V14.00,2013-01-02 17:07:00,
2013-01-02 11:10:00,32.0,22.3,29.38,South,189,2.2,4.9,67,0.00,,---,0.00,VWS V14.00,2013-01-02 17:10:00,
2013-01-02 11:13:00,32.0,22.3,29.38,South,169,2.7,4.9,67,0.00,,---,0.00,VWS V14.00,2013-01-02 17:13:00,
2013-01-02 11:16:00,30.7,20.4,29.38,South,169,0.0,4.9,65,0.00,,---,0.00,VWS V14.00,2013-01-02 17:16:00,
2013-01-02 11:19:00,30.4,20.0,29.38,South,170,4.0,4.9,65,0.00,,---,0.00,VWS V14.00,2013-01-02 17:19:00,
2013-01-02 11:25:00,30.0,19.3,29.38,South,179,4.0,4.0,64,0.00,,---,0.00,VWS V14.00,2013-01-02 17:25:00,
2013-01-02 11:31:00,30.4,20.0,29.38,SSE,162,3.1,4.0,65,0.00,,---,0.00,VWS V14.00,2013-01-02 17:31:00,
2013-01-02 11:34:00,30.7,20.7,29.38,SSE,162,3.1,4.0,66,0.00,,---,0.00,VWS V14.00,2013-01-02 17:34:00,
2013-01-02 11:37:00,31.1,21.1,29.38,SSE,160,3.1,3.1,66,0.00,,---,0.00,VWS V14.00,2013-01-02 17:37:00,
2013-01-02 11:40:00,31.6,21.6,29.38,South,175,0.0,4.9,66,0.00,,---,0.00,VWS V14.00,2013-01-02 17:40:00,
2013-01-02 11:43:00,32.0,21.6,29.38,SW,222,2.7,4.9,65,0.00,,---,0.00,VWS V14.00,2013-01-02 17:43:00,
2013-01-02 11:46:00,32.0,21.6,29.38,East,85,3.1,4.9,65,0.00,,---,0.00,VWS V14.00,2013-01-02 17:46:00,
2013-01-02 11:49:00,32.2,21.4,29.38,SSE,166,0.0,4.9,64,0.00,,---,0.00,VWS V14.00,2013-01-02 17:49:00,
2013-01-02 11:52:00,32.2,21.4,29.38,SSE,164,2.7,2.7,64,0.00,,---,0.00,VWS V14.00,2013-01-02 17:52:00,
2013-01-02 11:58:00,32.5,21.7,29.35,SSE,164,0.0,2.7,64,0.00,,---,0.00,VWS V14.00,2013-01-02 17:58:00,
2013-01-02 12:04:00,32.5,21.7,29.35,SSE,152,3.1,3.1,64,0.00,,---,0.00,VWS V14.00,2013-01-02 18:04:00,
2013-01-02 12:10:00,33.1,21.5,29.35,SSE,152,0.0,3.1,62,0.00,,---,0.00,VWS V14.00,2013-01-02 18:10:00,
2013-01-02 12:16:00,33.2,21.6,29.35,SSE,152,0.0,3.1,62,0.00,,---,0.00,VWS V14.00,2013-01-02 18:16:00,
2013-01-02 12:19:00,33.6,21.6,29.35,South,177,0.0,3.1,61,0.00,,---,0.00,VWS V14.00,2013-01-02 18:19:00,
2013-01-02 12:25:00,33.8,21.4,29.35,South,177,0.0,0.0,60,0.00,,---,0.00,VWS V14.00,2013-01-02 18:25:00,
2013-01-02 12:31:00,34.0,21.2,29.35,South,177,0.0,0.0,59,0.00,,---,0.00,VWS V14.00,2013-01-02 18:31:00,
2013-01-02 12:34:00,34.3,21.5,29.32,South,177,0.0,0.0,59,0.00,,---,0.00,VWS V14.00,2013-01-02 18:34:00,
2013-01-02 12:37:00,34.3,21.5,29.32,South,177,0.0,0.0,59,0.00,,---,0.00,VWS V14.00,2013-01-02 18:37:00,
2013-01-02 12:40:00,34.5,21.3,29.32,South,177,0.0,0.0,58,0.00,,---,0.00,VWS V14.00,2013-01-02 18:40:00,
2013-01-02 12:46:00,34.5,21.3,29.32,South,177,0.0,0.0,58,0.00,,---,0.00,VWS V14.00,2013-01-02 18:46:00,
2013-01-02 12:49:00,34.3,20.7,29.32,South,177,0.0,0.0,57,0.00,,---,0.00,VWS V14.00,2013-01-02 18:49:00,
2013-01-02 12:55:00,34.3,20.7,29.32,South,177,0.0,0.0,57,0.00,,---,0.00,VWS V14.00,2013-01-02 18:55:00,
2013-01-02 12:58:00,34.9,21.2,29.32,South,177,0.0,0.0,57,0.00,,---,0.00,VWS V14.00,2013-01-02 18:58:00,
2013-01-02 13:01:00,34.9,21.2,29.32,South,177,0.0,0.0,57,0.00,,---,0.00,VWS V14.00,2013-01-02 19:01:00,
2013-01-02 13:04:00,34.9,20.8,29.32,South,177,0.0,0.0,56,0.00,,---,0.00,VWS V14.00,2013-01-02 19:04:00,
2013-01-02 13:10:00,34.9,20.8,29.32,South,177,0.0,0.0,56,0.00,,---,0.00,VWS V14.00,2013-01-02 19:10:00,
2013-01-02 13:16:00,35.6,21.0,29.32,South,177,3.1,3.1,55,0.00,,---,0.00,VWS V14.00,2013-01-02 19:16:00,
2013-01-02 13:19:00,35.6,21.0,29.32,South,177,3.6,3.6,55,0.00,,---,0.00,VWS V14.00,2013-01-02 19:19:00,
2013-01-02 13:22:00,35.9,21.4,29.32,South,177,3.6,3.6,55,0.00,,---,0.00,VWS V14.00,2013-01-02 19:22:00,
2013-01-02 13:25:00,35.9,21.4,29.32,South,170,3.1,3.6,55,0.00,,---,0.00,VWS V14.00,2013-01-02 19:25:00,
2013-01-02 13:31:00,36.5,21.9,29.32,South,170,2.2,3.6,55,0.00,,---,0.00,VWS V14.00,2013-01-02 19:31:00,
2013-01-02 13:34:00,36.5,21.9,29.32,South,182,4.0,4.0,55,0.00,,---,0.00,VWS V14.00,2013-01-02 19:34:00,
2013-01-02 13:37:00,36.5,21.9,29.32,South,181,0.0,4.0,55,0.00,,---,0.00,VWS V14.00,2013-01-02 19:37:00,
2013-01-02 13:40:00,36.8,22.2,29.32,SSE,156,2.7,4.0,55,0.00,,---,0.00,VWS V14.00,2013-01-02 19:40:00,
2013-01-02 13:43:00,36.8,22.2,29.32,SSE,156,0.0,4.0,55,0.00,,---,0.00,VWS V14.00,2013-01-02 19:43:00,
2013-01-02 13:46:00,36.8,21.8,29.32,SSE,156,0.0,4.0,54,0.00,,---,0.00,VWS V14.00,2013-01-02 19:46:00,
2013-01-02 13:49:00,37.0,21.9,29.32,SSE,161,3.1,4.0,54,0.00,,---,0.00,VWS V14.00,2013-01-02 19:49:00,
2013-01-02 13:55:00,37.0,21.9,29.32,SSE,161,2.7,3.1,54,0.00,,---,0.00,VWS V14.00,2013-01-02 19:55:00,
2013-01-02 13:58:00,37.2,22.1,29.32,SSE,161,2.7,3.1,54,0.00,,---,0.00,VWS V14.00,2013-01-02 19:58:00,
2013-01-02 14:04:00,37.6,22.4,29.32,SSE,161,0.0,3.1,54,0.00,,---,0.00,VWS V14.00,2013-01-02 20:04:00,
2013-01-02 14:10:00,37.7,22.2,29.32,SSW,192,0.0,0.0,53,0.00,,---,0.00,VWS V14.00,2013-01-02 20:10:00,
2013-01-02 14:13:00,37.7,22.2,29.32,SSW,192,0.0,0.0,53,0.00,,---,0.00,VWS V14.00,2013-01-02 20:13:00,
2013-01-02 14:16:00,37.7,22.2,29.32,SSW,192,0.0,0.0,53,0.00,,---,0.00,VWS V14.00,2013-01-02 20:16:00,
2013-01-02 14:19:00,37.7,22.2,29.32,SSW,192,0.0,0.0,53,0.00,,---,0.00,VWS V14.00,2013-01-02 20:19:00,
2013-01-02 14:22:00,37.9,22.3,29.32,SSW,192,0.0,0.0,53,0.00,,---,0.00,VWS V14.00,2013-01-02 20:22:00,
2013-01-02 14:28:00,37.9,22.3,29.32,SSW,193,3.6,3.6,53,0.00,,---,0.00,VWS V14.00,2013-01-02 20:28:00,
2013-01-02 14:31:00,38.3,22.7,29.32,SSE,167,2.7,3.6,53,0.00,,---,0.00,VWS V14.00,2013-01-02 20:31:00,
2013-01-02 14:34:00,38.3,22.7,29.32,SSE,168,3.1,3.6,53,0.00,,---,0.00,VWS V14.00,2013-01-02 20:34:00,
2013-01-02 14:37:00,38.3,22.7,29.29,SSE,168,0.0,3.1,53,0.00,,---,0.00,VWS V14.00,2013-01-02 20:37:00,
2013-01-02 14:40:00,38.3,22.7,29.29,SSE,168,0.0,3.1,53,0.00,,---,0.00,VWS V14.00,2013-01-02 20:40:00,
2013-01-02 14:43:00,38.3,22.7,29.29,SSE,155,3.1,3.6,53,0.00,,---,0.00,VWS V14.00,2013-01-02 20:43:00,
2013-01-02 14:46:00,38.3,22.2,29.29,SSE,155,3.1,3.6,52,0.00,,---,0.00,VWS V14.00,2013-01-02 20:46:00,
2013-01-02 14:49:00,38.3,22.2,29.32,SSE,155,0.0,3.6,52,0.00,,---,0.00,VWS V14.00,2013-01-02 20:49:00,
2013-01-02 14:52:00,38.3,22.2,29.32,SSE,155,0.0,0.0,52,0.00,,---,0.00,VWS V14.00,2013-01-02 20:52:00,
2013-01-02 14:55:00,38.1,22.0,29.32,SSE,155,0.0,0.0,52,0.00,,---,0.00,VWS V14.00,2013-01-02 20:55:00,
2013-01-02 14:58:00,37.9,21.9,29.32,SSE,155,0.0,0.0,52,0.00,,---,0.00,VWS V14.00,2013-01-02 20:58:00,
2013-01-02 15:04:00,38.1,22.0,29.32,SSE,155,0.0,0.0,52,0.00,,---,0.00,VWS V14.00,2013-01-02 21:04:00,
2013-01-02 15:07:00,38.1,22.0,29.32,SSE,151,0.0,0.0,52,0.00,,---,0.00,VWS V14.00,2013-01-02 21:07:00,
2013-01-02 15:10:00,38.1,22.0,29.32,SSE,151,0.0,0.0,52,0.00,,---,0.00,VWS V14.00,2013-01-02 21:10:00,
2013-01-02 15:13:00,37.9,21.9,29.32,SSE,147,0.0,0.0,52,0.00,,---,0.00,VWS V14.00,2013-01-02 21:13:00,
2013-01-02 15:19:00,38.1,22.0,29.32,South,177,0.0,0.0,52,0.00,,---,0.00,VWS V14.00,2013-01-02 21:19:00,
2013-01-02 15:25:00,38.1,22.0,29.29,South,177,4.9,4.9,52,0.00,,---,0.00,VWS V14.00,2013-01-02 21:25:00,
2013-01-02 15:28:00,37.9,21.9,29.29,South,185,3.6,4.9,52,0.00,,---,0.00,VWS V14.00,2013-01-02 21:28:00,
2013-01-02 15:34:00,37.7,21.7,29.29,South,171,3.6,4.9,52,0.00,,---,0.00,VWS V14.00,2013-01-02 21:34:00,
2013-01-02 15:40:00,37.6,21.5,29.29,SE,126,2.2,3.6,52,0.00,,---,0.00,VWS V14.00,2013-01-02 21:40:00,
2013-01-02 15:46:00,37.4,21.4,29.29,South,171,3.6,3.6,52,0.00,,---,0.00,VWS V14.00,2013-01-02 21:46:00,
2013-01-02 15:49:00,37.4,21.4,29.29,South,189,2.7,3.6,52,0.00,,---,0.00,VWS V14.00,2013-01-02 21:49:00,
2013-01-02 15:52:00,37.0,21.5,29.29,SSE,158,4.0,4.0,53,0.00,,---,0.00,VWS V14.00,2013-01-02 21:52:00,
2013-01-02 15:55:00,36.8,21.3,29.29,SSE,158,3.6,4.0,53,0.00,,---,0.00,VWS V14.00,2013-01-02 21:55:00,
2013-01-02 16:01:00,36.7,21.2,29.29,SSE,158,0.0,4.0,53,0.00,,---,0.00,VWS V14.00,2013-01-02 22:01:00,
2013-01-02 16:04:00,36.5,21.0,29.29,SSE,158,0.0,4.0,53,0.00,,---,0.00,VWS V14.00,2013-01-02 22:04:00,
2013-01-02 16:10:00,36.3,20.8,29.29,SE,134,2.7,2.7,53,0.00,,---,0.00,VWS V14.00,2013-01-02 22:10:00,
2013-01-02 16:13:00,36.1,21.1,29.29,SE,134,0.0,2.7,54,0.00,,---,0.00,VWS V14.00,2013-01-02 22:13:00,
2013-01-02 16:16:00,35.9,20.9,29.29,SE,134,0.0,2.7,54,0.00,,---,0.00,VWS V14.00,2013-01-02 22:16:00,
2013-01-02 16:19:00,35.9,20.9,29.29,ESE,104,3.1,3.1,54,0.00,,---,0.00,VWS V14.00,2013-01-02 22:19:00,
2013-01-02 16:22:00,35.6,20.6,29.29,SSE,148,2.7,3.1,54,0.00,,---,0.00,VWS V14.00,2013-01-02 22:22:00,
2013-01-02 16:28:00,35.6,21.0,29.32,SSE,148,0.0,3.1,55,0.00,,---,0.00,VWS V14.00,2013-01-02 22:28:00,
2013-01-02 16:34:00,35.4,20.9,29.32,South,170,0.0,3.1,55,0.00,,---,0.00,VWS V14.00,2013-01-02 22:34:00,
2013-01-02 16:40:00,35.2,21.1,29.32,South,170,0.0,2.2,56,0.00,,---,0.00,VWS V14.00,2013-01-02 22:40:00,
2013-01-02 16:46:00,35.0,20.9,29.29,South,186,3.6,3.6,56,0.00,,---,0.00,VWS V14.00,2013-01-02 22:46:00,
2013-01-02 16:49:00,35.0,20.9,29.29,South,171,0.0,3.6,56,0.00,,---,0.00,VWS V14.00,2013-01-02 22:49:00,
2013-01-02 16:55:00,34.9,20.8,29.32,South,171,0.0,0.0,56,0.00,,---,0.00,VWS V14.00,2013-01-02 22:55:00,
2013-01-02 16:59:00,34.9,20.8,29.32,South,171,0.0,0.0,56,0.00,,---,0.00,VWS V14.00,2013-01-02 22:59:00,
2013-01-02 17:02:00,34.7,21.0,29.32,South,171,0.0,0.0,57,0.00,,---,0.00,VWS V14.00,2013-01-02 23:02:00,
2013-01-02 17:04:00,34.5,20.9,29.32,South,171,0.0,0.0,57,0.00,,---,0.00,VWS V14.00,2013-01-02 23:04:00,
2013-01-02 17:05:00,34.5,20.9,29.32,South,171,0.0,0.0,57,0.00,,---,0.00,VWS V14.00,2013-01-02 23:05:00,
2013-01-02 17:11:00,34.3,21.1,29.32,South,171,0.0,0.0,58,0.00,,---,0.00,VWS V14.00,2013-01-02 23:11:00,
2013-01-02 17:17:00,34.1,20.9,29.32,South,171,0.0,0.0,58,0.00,,---,0.00,VWS V14.00,2013-01-02 23:17:00,
2013-01-02 17:19:00,34.1,20.9,29.32,South,171,0.0,0.0,58,0.00,,---,0.00,VWS V14.00,2013-01-02 23:19:00,
2013-01-02 17:20:00,34.1,20.9,29.32,South,171,0.0,0.0,58,0.00,,---,0.00,VWS V14.00,2013-01-02 23:20:00,
2013-01-02 17:23:00,34.1,20.9,29.32,South,171,0.0,0.0,58,0.00,,---,0.00,VWS V14.00,2013-01-02 23:23:00,
2013-01-02 17:29:00,32.7,20.0,29.32,South,171,0.0,0.0,59,0.00,,---,0.00,VWS V14.00,2013-01-02 23:29:00,
2013-01-02 17:34:00,32.3,20.0,29.32,South,171,0.0,0.0,60,0.00,,---,0.00,VWS V14.00,2013-01-02 23:34:00,
2013-01-02 17:35:00,32.3,20.0,29.32,South,171,0.0,0.0,60,0.00,,---,0.00,VWS V14.00,2013-01-02 23:35:00,
2013-01-02 17:41:00,32.3,20.4,29.32,South,171,0.0,0.0,61,0.00,,---,0.00,VWS V14.00,2013-01-02 23:41:00,
2013-01-02 17:47:00,32.3,20.4,29.32,South,171,0.0,0.0,61,0.00,,---,0.00,VWS V14.00,2013-01-02 23:47:00,
2013-01-02 17:49:00,32.3,20.4,29.32,South,171,0.0,0.0,61,0.00,,---,0.00,VWS V14.00,2013-01-02 23:49:00,
2013-01-02 17:53:00,32.3,21.2,29.32,South,171,0.0,0.0,63,0.00,,---,0.00,VWS V14.00,2013-01-02 23:53:00,
2013-01-02 17:56:00,32.2,21.4,29.32,South,171,0.0,0.0,64,0.00,,---,0.00,VWS V14.00,2013-01-02 23:56:00,
2013-01-02 17:59:00,32.2,21.4,29.32,South,171,0.0,0.0,64,0.00,,---,0.00,VWS V14.00,2013-01-02 23:59:00,
2013-01-02 18:02:00,32.2,21.4,29.32,South,171,0.0,0.0,64,0.00,,---,0.00,VWS V14.00,2013-01-03 00:02:00,
2013-01-02 18:05:00,32.0,21.2,29.32,South,171,0.0,0.0,64,0.00,,---,0.00,VWS V14.00,2013-01-03 00:05:00,
2013-01-02 18:11:00,32.0,21.2,29.32,South,171,0.0,0.0,64,0.00,,---,0.00,VWS V14.00,2013-01-03 00:11:00,
2013-01-02 18:14:00,32.0,21.2,29.32,South,171,0.0,0.0,64,0.00,,---,0.00,VWS V14.00,2013-01-03 00:14:00,
2013-01-02 18:17:00,32.0,21.2,29.32,South,171,0.0,0.0,64,0.00,,---,0.00,VWS V14.00,2013-01-03 00:17:00,
2013-01-02 18:19:00,31.8,21.4,29.32,South,171,0.0,0.0,65,0.00,,---,0.00,VWS V14.00,2013-01-03 00:19:00,
2013-01-02 18:23:00,31.6,21.2,29.32,South,171,0.0,0.0,65,0.00,,---,0.00,VWS V14.00,2013-01-03 00:23:00,
2013-01-02 18:29:00,31.6,21.2,29.32,South,171,0.0,0.0,65,0.00,,---,0.00,VWS V14.00,2013-01-03 00:29:00,
2013-01-02 18:34:00,31.4,21.4,29.32,South,171,0.0,0.0,66,0.00,,---,0.00,VWS V14.00,2013-01-03 00:34:00,
2013-01-02 18:38:00,31.4,21.4,29.32,South,171,0.0,0.0,66,0.00,,---,0.00,VWS V14.00,2013-01-03 00:38:00,
2013-01-02 18:41:00,31.4,21.4,29.32,South,171,0.0,0.0,66,0.00,,---,0.00,VWS V14.00,2013-01-03 00:41:00,
2013-01-02 18:44:00,31.4,21.4,29.32,South,171,0.0,0.0,66,0.00,,---,0.00,VWS V14.00,2013-01-03 00:44:00,
2013-01-02 18:50:00,31.3,21.6,29.32,South,171,0.0,0.0,67,0.00,,---,0.00,VWS V14.00,2013-01-03 00:50:00,
2013-01-02 18:54:00,31.1,21.1,29.32,South,171,0.0,0.0,66,0.00,,---,0.00,VWS V14.00,2013-01-03 00:54:00,
2013-01-02 19:00:00,30.4,20.0,29.32,South,171,0.0,0.0,65,0.00,,---,0.00,VWS V14.00,2013-01-03 01:00:00,
2013-01-02 19:03:00,30.2,19.9,29.32,South,171,0.0,0.0,65,0.00,,---,0.00,VWS V14.00,2013-01-03 01:03:00,
2013-01-02 19:06:00,30.0,19.7,29.32,South,171,0.0,0.0,65,0.00,,---,0.00,VWS V14.00,2013-01-03 01:06:00,
2013-01-02 19:09:00,29.8,19.5,29.32,South,171,0.0,0.0,65,0.00,,---,0.00,VWS V14.00,2013-01-03 01:09:00,
2013-01-02 19:12:00,29.8,19.9,29.32,South,171,0.0,0.0,66,0.00,,---,0.00,VWS V14.00,2013-01-03 01:12:00,
2013-01-02 19:15:00,29.8,19.9,29.32,South,171,0.0,0.0,66,0.00,,---,0.00,VWS V14.00,2013-01-03 01:15:00,
2013-01-02 19:19:00,29.8,20.6,29.32,South,171,0.0,0.0,68,0.00,,---,0.00,VWS V14.00,2013-01-03 01:19:00,
2013-01-02 19:21:00,29.8,20.6,29.32,South,171,0.0,0.0,68,0.00,,---,0.00,VWS V14.00,2013-01-03 01:21:00,
2013-01-02 19:27:00,29.8,20.6,29.35,South,171,0.0,0.0,68,0.00,,---,0.00,VWS V14.00,2013-01-03 01:27:00,
2013-01-02 19:30:00,30.0,21.4,29.35,South,171,0.0,0.0,70,0.00,,---,0.00,VWS V14.00,2013-01-03 01:30:00,
2013-01-02 19:33:00,30.0,21.4,29.35,South,171,0.0,0.0,70,0.00,,---,0.00,VWS V14.00,2013-01-03 01:33:00,
2013-01-02 19:34:00,30.0,21.8,29.35,South,171,0.0,0.0,71,0.00,,---,0.00,VWS V14.00,2013-01-03 01:34:00,
2013-01-02 19:36:00,29.8,21.6,29.35,South,171,0.0,0.0,71,0.00,,---,0.00,VWS V14.00,2013-01-03 01:36:00,
2013-01-02 19:42:00,29.8,21.9,29.35,South,171,0.0,0.0,72,0.00,,---,0.00,VWS V14.00,2013-01-03 01:42:00,
2013-01-02 19:45:00,29.8,22.2,29.35,South,171,0.0,0.0,73,0.00,,---,0.00,VWS V14.00,2013-01-03 01:45:00,
2013-01-02 19:48:00,29.8,22.2,29.35,South,171,0.0,0.0,73,0.00,,---,0.00,VWS V14.00,2013-01-03 01:48:00,
2013-01-02 19:49:00,29.6,22.4,29.35,South,171,0.0,0.0,74,0.00,,---,0.00,VWS V14.00,2013-01-03 01:49:00,
2013-01-02 19:57:00,29.6,22.7,29.35,South,171,0.0,0.0,75,0.00,,---,0.00,VWS V14.00,2013-01-03 01:57:00,
2013-01-02 20:03:00,29.1,22.2,29.35,South,171,0.0,0.0,75,0.00,,---,0.00,VWS V14.00,2013-01-03 02:03:00,
2013-01-02 20:04:00,29.1,22.2,29.35,South,171,0.0,0.0,75,0.00,,---,0.00,VWS V14.00,2013-01-03 02:04:00,
2013-01-02 20:09:00,29.1,22.2,29.35,South,171,0.0,0.0,75,0.00,,---,0.00,VWS V14.00,2013-01-03 02:09:00,
2013-01-02 20:12:00,28.9,22.3,29.35,South,171,0.0,0.0,76,0.00,,---,0.00,VWS V14.00,2013-01-03 02:12:00,
2013-01-02 20:15:00,28.9,22.3,29.35,South,171,0.0,0.0,76,0.00,,---,0.00,VWS V14.00,2013-01-03 02:15:00,
2013-01-02 20:18:00,28.9,22.6,29.35,South,171,0.0,0.0,77,0.00,,---,0.00,VWS V14.00,2013-01-03 02:18:00,
2013-01-02 20:19:00,28.9,22.6,29.35,South,171,0.0,0.0,77,0.00,,---,0.00,VWS V14.00,2013-01-03 02:19:00,
2013-01-02 20:21:00,28.9,22.9,29.35,South,171,0.0,0.0,78,0.00,,---,0.00,VWS V14.00,2013-01-03 02:21:00,
2013-01-02 20:27:00,28.7,22.8,29.35,South,171,0.0,0.0,78,0.00,,---,0.00,VWS V14.00,2013-01-03 02:27:00,
2013-01-02 20:30:00,28.7,22.8,29.35,South,171,0.0,0.0,78,0.00,,---,0.00,VWS V14.00,2013-01-03 02:30:00,
2013-01-02 20:33:00,28.6,22.9,29.35,South,171,0.0,0.0,79,0.00,,---,0.00,VWS V14.00,2013-01-03 02:33:00,
2013-01-02 20:34:00,28.6,22.9,29.35,South,171,0.0,0.0,79,0.00,,---,0.00,VWS V14.00,2013-01-03 02:34:00,
2013-01-02 20:36:00,28.6,22.9,29.35,South,171,0.0,0.0,79,0.00,,---,0.00,VWS V14.00,2013-01-03 02:36:00,
2013-01-02 20:39:00,28.6,22.9,29.35,South,171,0.0,0.0,79,0.00,,---,0.00,VWS V14.00,2013-01-03 02:39:00,
2013-01-02 20:42:00,28.6,22.9,29.35,South,171,0.0,0.0,79,0.00,,---,0.00,VWS V14.00,2013-01-03 02:42:00,
2013-01-02 20:48:00,28.2,22.8,29.35,South,171,0.0,0.0,80,0.00,,---,0.00,VWS V14.00,2013-01-03 02:48:00,
2013-01-02 20:49:00,28.2,22.8,29.35,South,171,0.0,0.0,80,0.00,,---,0.00,VWS V14.00,2013-01-03 02:49:00,
2013-01-02 20:51:00,28.2,23.1,29.35,South,171,0.0,0.0,81,0.00,,---,0.00,VWS V14.00,2013-01-03 02:51:00,
2013-01-02 20:57:00,28.2,22.8,29.35,South,171,0.0,0.0,80,0.00,,---,0.00,VWS V14.00,2013-01-03 02:57:00,
2013-01-02 21:00:00,28.2,22.8,29.35,South,171,0.0,0.0,80,0.00,,---,0.00,VWS V14.00,2013-01-03 03:00:00,
2013-01-02 21:03:00,28.0,22.7,29.35,South,171,0.0,0.0,80,0.00,,---,0.00,VWS V14.00,2013-01-03 03:03:00,
2013-01-02 21:04:00,28.0,22.7,29.35,South,171,0.0,0.0,80,0.00,,---,0.00,VWS V14.00,2013-01-03 03:04:00,
2013-01-02 21:09:00,28.0,22.7,29.35,South,171,0.0,0.0,80,0.00,,---,0.00,VWS V14.00,2013-01-03 03:09:00,
2013-01-02 21:12:00,28.0,22.7,29.35,South,171,0.0,0.0,80,0.00,,---,0.00,VWS V14.00,2013-01-03 03:12:00,
2013-01-02 21:15:00,27.8,22.8,29.35,South,171,0.0,0.0,81,0.00,,---,0.00,VWS V14.00,2013-01-03 03:15:00,
2013-01-02 21:19:00,27.8,22.8,29.35,South,171,0.0,0.0,81,0.00,,---,0.00,VWS V14.00,2013-01-03 03:19:00,
2013-01-02 21:21:00,27.8,22.8,29.35,South,171,0.0,0.0,81,0.00,,---,0.00,VWS V14.00,2013-01-03 03:21:00,
2013-01-02 21:27:00,27.8,23.1,29.35,South,171,0.0,0.0,82,0.00,,---,0.00,VWS V14.00,2013-01-03 03:27:00,
2013-01-02 21:43:00,27.7,23.5,29.35,South,171,0.0,0.0,84,0.00,,---,0.00,VWS V14.00,2013-01-03 03:43:00,
2013-01-02 21:49:00,27.7,23.5,29.35,South,171,0.0,0.0,84,0.00,,---,0.00,VWS V14.00,2013-01-03 03:49:00,
2013-01-02 21:50:00,27.7,23.5,29.35,South,171,0.0,0.0,84,0.00,,---,0.00,VWS V14.00,2013-01-03 03:50:00,
2013-01-02 21:56:00,27.1,22.9,29.38,South,171,0.0,0.0,84,0.00,,---,0.00,VWS V14.00,2013-01-03 03:56:00,
2013-01-02 21:59:00,27.1,22.6,29.38,South,171,0.0,0.0,83,0.00,,---,0.00,VWS V14.00,2013-01-03 03:59:00,
2013-01-02 22:02:00,26.9,22.5,29.38,South,171,0.0,0.0,83,0.00,,---,0.00,VWS V14.00,2013-01-03 04:02:00,
2013-01-02 22:05:00,26.9,22.5,29.38,South,171,0.0,0.0,83,0.00,,---,0.00,VWS V14.00,2013-01-03 04:05:00,
2013-01-02 22:11:00,26.8,22.0,29.38,South,171,0.0,0.0,82,0.00,,---,0.00,VWS V14.00,2013-01-03 04:11:00,
2013-01-02 22:17:00,26.8,22.0,29.38,South,171,0.0,0.0,82,0.00,,---,0.00,VWS V14.00,2013-01-03 04:17:00,
2013-01-02 22:23:00,26.8,22.0,29.38,South,171,0.0,0.0,82,0.00,,---,0.00,VWS V14.00,2013-01-03 04:23:00,
2013-01-02 22:26:00,26.8,22.3,29.38,South,171,0.0,0.0,83,0.00,,---,0.00,VWS V14.00,2013-01-03 04:26:00,
2013-01-02 22:32:00,26.8,22.6,29.38,South,171,0.0,0.0,84,0.00,,---,0.00,VWS V14.00,2013-01-03 04:32:00,
2013-01-02 22:34:00,26.8,22.6,29.38,South,171,0.0,0.0,84,0.00,,---,0.00,VWS V14.00,2013-01-03 04:34:00,
2013-01-02 22:38:00,26.8,22.9,29.38,South,171,0.0,0.0,85,0.00,,---,0.00,VWS V14.00,2013-01-03 04:38:00,
2013-01-02 22:44:00,26.8,22.9,29.38,South,171,0.0,0.0,85,0.00,,---,0.00,VWS V14.00,2013-01-03 04:44:00,
2013-01-02 22:49:00,26.8,22.6,29.38,South,171,0.0,0.0,84,0.00,,---,0.00,VWS V14.00,2013-01-03 04:49:00,
2013-01-02 22:50:00,26.8,22.6,29.38,South,171,0.0,0.0,84,0.00,,---,0.00,VWS V14.00,2013-01-03 04:50:00,
2013-01-02 22:56:00,26.8,22.6,29.38,South,171,0.0,0.0,84,0.00,,---,0.00,VWS V14.00,2013-01-03 04:56:00,
2013-01-02 22:59:00,26.6,22.4,29.38,South,171,0.0,0.0,84,0.00,,---,0.00,VWS V14.00,2013-01-03 04:59:00,
2013-01-02 23:04:00,26.6,22.4,29.38,South,171,0.0,0.0,84,0.00,,---,0.00,VWS V14.00,2013-01-03 05:04:00,
2013-01-02 23:05:00,26.6,22.4,29.38,South,171,0.0,0.0,84,0.00,,---,0.00,VWS V14.00,2013-01-03 05:05:00,
2013-01-02 23:08:00,26.6,22.4,29.38,South,171,0.0,0.0,84,0.00,,---,0.00,VWS V14.00,2013-01-03 05:08:00,
2013-01-02 23:11:00,26.8,22.6,29.38,South,171,0.0,0.0,84,0.00,,---,0.00,VWS V14.00,2013-01-03 05:11:00,
2013-01-02 23:14:00,26.8,22.6,29.38,South,171,0.0,0.0,84,0.00,,---,0.00,VWS V14.00,2013-01-03 05:14:00,
2013-01-02 23:19:00,27.1,23.2,29.38,South,171,0.0,0.0,85,0.00,,---,0.00,VWS V14.00,2013-01-03 05:19:00,
2013-01-02 23:20:00,27.1,23.2,29.38,South,171,0.0,0.0,85,0.00,,---,0.00,VWS V14.00,2013-01-03 05:20:00,
2013-01-02 23:23:00,27.1,23.2,29.38,South,171,0.0,0.0,85,0.00,,---,0.00,VWS V14.00,2013-01-03 05:23:00,
2013-01-02 23:26:00,27.1,23.2,29.38,South,171,0.0,0.0,85,0.00,,---,0.00,VWS V14.00,2013-01-03 05:26:00,
2013-01-02 23:29:00,27.1,23.2,29.38,South,171,0.0,0.0,85,0.00,,---,0.00,VWS V14.00,2013-01-03 05:29:00,
2013-01-02 23:32:00,27.1,23.2,29.38,South,171,0.0,0.0,85,0.00,,---,0.00,VWS V14.00,2013-01-03 05:32:00,
2013-01-02 23:34:00,27.1,23.2,29.38,South,171,0.0,0.0,85,0.00,,---,0.00,VWS V14.00,2013-01-03 05:34:00,
2013-01-02 23:38:00,27.1,23.2,29.38,South,171,0.0,0.0,85,0.00,,---,0.00,VWS V14.00,2013-01-03 05:38:00,
2013-01-02 23:44:00,26.8,22.6,29.38,South,171,0.0,0.0,84,0.00,,---,0.00,VWS V14.00,2013-01-03 05:44:00,
2013-01-02 23:47:00,26.8,22.6,29.38,South,171,0.0,0.0,84,0.00,,---,0.00,VWS V14.00,2013-01-03 05:47:00,
2013-01-02 23:50:00,26.6,22.1,29.35,South,171,0.0,0.0,83,0.00,,---,0.00,VWS V14.00,2013-01-03 05:50:00,
2013-01-02 23:53:00,26.6,22.1,29.35,South,171,0.0,0.0,83,0.00,,---,0.00,VWS V14.00,2013-01-03 05:53:00,
2013-01-02 23:56:00,26.6,22.1,29.35,South,171,0.0,0.0,83,0.00,,---,0.00,VWS V14.00,2013-01-03 05:56:00,
2013-01-02 23:59:00,26.4,21.7,29.35,South,171,0.0,0.0,82,0.00,,---,0.00,VWS V14.00,2013-01-03 05:59:00,